Time;durP1;ratioP1;P1;durP2;ratioP2;P2;SDS_P1;SDS_P2;PMS_P1;PMS_P2;Temp;Humidity;BMP_temperature;BMP_pressure;BME280_temperature;BME280_humidity;BME280_pressure;Samples;Min_cycle;Max_cycle;Signal;HPM_P1;HPM_P2
2022/07/16 00:02:27;;;;;;;;;;;16.20;99.90;;;;;;5076415;28;19916;-71
2022/07/16 00:04:52;;;;;;;;;;;16.20;99.90;;;;;;5075445;28;19913;-71
2022/07/16 00:07:19;;;;;;;;;;;16.10;99.90;;;;;;5075562;28;20360;-71
2022/07/16 00:09:44;;;;;;;;;;;16.10;99.90;;;;;;5075717;28;19919;-71
2022/07/16 00:12:10;;;;;;;;;;;16.10;99.90;;;;;;5075677;28;19909;-71
2022/07/16 00:14:36;;;;;;;;;;;16.20;99.90;;;;;;5075468;28;20376;-71
2022/07/16 00:17:01;;;;;;;;;;;16.10;99.90;;;;;;5074322;28;19909;-71
2022/07/16 00:19:27;;;;;;;;;;;16.10;99.90;;;;;;5075818;28;19908;-71
2022/07/16 00:21:54;;;;;;;;;;;16.10;99.90;;;;;;5075214;28;20276;-71
2022/07/16 00:24:19;;;;;;;;;;;16.20;99.90;;;;;;5075210;28;19919;-71
2022/07/16 00:26:46;;;;;;;;;;;16.10;99.90;;;;;;5075074;28;19909;-71
2022/07/16 00:29:12;;;;;;;;;;;16.00;99.90;;;;;;5075348;28;19908;-71
2022/07/16 00:31:38;;;;;;;;;;;15.90;99.90;;;;;;5074986;28;20000;-71
2022/07/16 00:34:07;;;;;;;;;;;15.80;99.90;;;;;;5075170;28;20392;-71
2022/07/16 00:36:33;;;;;;;;;;;15.80;99.90;;;;;;5073662;28;19909;-71
2022/07/16 00:38:58;;;;;;;;;;;15.60;99.90;;;;;;5075406;28;19916;-70
2022/07/16 00:41:24;;;;;;;;;;;15.50;99.90;;;;;;5075059;28;19912;-71
2022/07/16 00:43:51;;;;;;;;;;;15.40;99.90;;;;;;5074631;28;19919;-71
2022/07/16 00:46:17;;;;;;;;;;;15.40;99.90;;;;;;5074980;28;19931;-71
2022/07/16 00:48:43;;;;;;;;;;;15.40;99.90;;;;;;5075231;28;20276;-71
2022/07/16 00:51:09;;;;;;;;;;;15.40;99.90;;;;;;5073323;28;20007;-71
2022/07/16 00:53:36;;;;;;;;;;;15.40;99.90;;;;;;5075175;28;19936;-71
2022/07/16 00:56:02;;;;;;;;;;;15.40;99.90;;;;;;5074427;28;20357;-71
2022/07/16 00:58:28;;;;;;;;;;;15.50;99.90;;;;;;5074516;28;20357;-71
2022/07/16 01:00:54;;;;;;;;;;;15.40;99.90;;;;;;5074706;28;19919;-71
2022/07/16 01:03:19;;;;;;;;;;;15.40;99.90;;;;;;5074330;28;19913;-71
2022/07/16 01:05:45;;;;;;;;;;;15.40;99.90;;;;;;5074264;28;19963;-71
2022/07/16 01:08:11;;;;;;;;;;;15.40;99.90;;;;;;5074600;28;20261;-71
2022/07/16 01:10:38;;;;;;;;;;;15.30;99.90;;;;;;5073019;28;19963;-71
2022/07/16 01:13:04;;;;;;;;;;;15.30;99.90;;;;;;5074194;28;19912;-71
2022/07/16 01:15:30;;;;;;;;;;;15.30;99.90;;;;;;5074206;28;19916;-71
2022/07/16 01:17:55;;;;;;;;;;;15.30;99.90;;;;;;5074495;28;19955;-71
2022/07/16 01:20:21;;;;;;;;;;;15.20;99.90;;;;;;5074402;28;20297;-71
2022/07/16 01:22:47;;;;;;;;;;;15.10;99.90;;;;;;5074103;28;19958;-71
2022/07/16 01:25:12;;;;;;;;;;;15.10;99.90;;;;;;5072664;28;20384;-71
2022/07/16 01:27:38;;;;;;;;;;;15.00;99.90;;;;;;5074100;28;19908;-71
2022/07/16 01:30:08;;;;;;;;;;;15.10;99.90;;;;;;5074276;28;19995;-71
2022/07/16 01:32:34;;;;;;;;;;;15.10;99.90;;;;;;5074242;28;20258;-71
2022/07/16 01:35:00;;;;;;;;;;;15.00;99.90;;;;;;5073757;28;19916;-71
2022/07/16 01:37:25;;;;;;;;;;;15.00;99.90;;;;;;5073928;28;19908;-71
2022/07/16 01:39:51;;;;;;;;;;;14.90;99.90;;;;;;5074166;28;19909;-71
2022/07/16 01:42:16;;;;;;;;;;;14.90;99.90;;;;;;5073906;28;19916;-71
2022/07/16 01:44:42;;;;;;;;;;;14.90;99.90;;;;;;5073657;28;19913;-71
2022/07/16 01:47:07;;;;;;;;;;;14.90;99.90;;;;;;5072568;28;20318;-71
2022/07/16 01:49:34;;;;;;;;;;;14.90;99.90;;;;;;5074115;28;20375;-71
2022/07/16 01:52:04;;;;;;;;;;;14.90;99.90;;;;;;5073756;28;19908;-71
2022/07/16 01:54:29;;;;;;;;;;;14.90;99.90;;;;;;5074043;28;19915;-71
2022/07/16 01:56:55;;;;;;;;;;;14.80;99.90;;;;;;5073714;28;20002;-71
2022/07/16 01:59:20;;;;;;;;;;;14.70;99.90;;;;;;5073741;28;19909;-71
2022/07/16 02:01:46;;;;;;;;;;;14.80;99.90;;;;;;5073937;28;19943;-71
2022/07/16 02:04:11;;;;;;;;;;;14.80;99.90;;;;;;5072409;28;19919;-71
2022/07/16 02:06:37;;;;;;;;;;;14.80;99.90;;;;;;5073634;28;19908;-71
2022/07/16 02:09:02;;;;;;;;;;;14.80;99.90;;;;;;5073887;28;19908;-71
2022/07/16 02:11:28;;;;;;;;;;;14.80;99.90;;;;;;5073586;28;19931;-71
2022/07/16 02:13:53;;;;;;;;;;;14.90;99.90;;;;;;5073782;28;20003;-71
2022/07/16 02:16:19;;;;;;;;;;;14.90;99.90;;;;;;5073543;28;19994;-71
2022/07/16 02:18:44;;;;;;;;;;;14.90;99.90;;;;;;5073813;28;19915;-71
2022/07/16 02:21:10;;;;;;;;;;;14.90;99.90;;;;;;5073787;28;19909;-71
2022/07/16 02:23:36;;;;;;;;;;;14.80;99.90;;;;;;5072128;28;19913;-71
2022/07/16 02:26:01;;;;;;;;;;;14.80;99.90;;;;;;5073349;28;19908;-71
2022/07/16 02:28:27;;;;;;;;;;;14.70;99.90;;;;;;5073427;28;19908;-71
2022/07/16 02:30:52;;;;;;;;;;;14.70;99.90;;;;;;5073394;28;20384;-71
2022/07/16 02:33:18;;;;;;;;;;;14.70;99.90;;;;;;5073423;28;19913;-71
2022/07/16 02:35:44;;;;;;;;;;;14.70;99.90;;;;;;5073238;28;19924;-71
2022/07/16 02:38:10;;;;;;;;;;;14.70;99.90;;;;;;5073632;28;20349;-71
2022/07/16 02:40:36;;;;;;;;;;;14.70;99.90;;;;;;5076753;28;19908;-71
2022/07/16 02:43:02;;;;;;;;;;;14.70;99.90;;;;;;5077056;28;19943;-71
2022/07/16 02:45:28;;;;;;;;;;;14.70;99.90;;;;;;5075580;28;19908;-71
2022/07/16 02:47:54;;;;;;;;;;;14.70;99.90;;;;;;5076975;28;19977;-71
2022/07/16 02:50:20;;;;;;;;;;;14.70;99.90;;;;;;5077222;28;19909;-71
2022/07/16 02:52:46;;;;;;;;;;;14.70;99.90;;;;;;5077188;28;19950;-71
2022/07/16 02:55:11;;;;;;;;;;;14.70;99.90;;;;;;5077197;28;19909;-71
2022/07/16 02:57:37;;;;;;;;;;;14.70;99.90;;;;;;5076804;28;19909;-71
2022/07/16 03:00:07;;;;;;;;;;;14.70;99.90;;;;;;5077032;28;19998;-71
2022/07/16 03:02:32;;;;;;;;;;;14.70;99.90;;;;;;5076984;28;19908;-71
2022/07/16 03:04:58;;;;;;;;;;;14.60;99.90;;;;;;5075273;28;19922;-71
2022/07/16 03:07:23;;;;;;;;;;;14.50;99.90;;;;;;5076618;28;19912;-71
2022/07/16 03:09:49;;;;;;;;;;;14.50;99.90;;;;;;5076590;28;19915;-71
2022/07/16 03:12:15;;;;;;;;;;;14.40;99.90;;;;;;5075310;28;19909;-71
2022/07/16 03:14:40;;;;;;;;;;;14.50;99.90;;;;;;5076774;28;19916;-71
2022/07/16 03:17:06;;;;;;;;;;;14.40;99.90;;;;;;5076481;28;19943;-71
2022/07/16 03:19:31;;;;;;;;;;;14.40;99.90;;;;;;5076717;28;19962;-71
2022/07/16 03:21:57;;;;;;;;;;;14.40;99.90;;;;;;5076381;28;19909;-71
2022/07/16 03:24:22;;;;;;;;;;;14.40;99.90;;;;;;5076206;28;19913;-71
2022/07/16 03:26:48;;;;;;;;;;;14.50;99.90;;;;;;5076260;28;19996;-71
2022/07/16 03:29:13;;;;;;;;;;;14.40;99.90;;;;;;5076245;28;19916;-71
2022/07/16 03:31:39;;;;;;;;;;;14.40;99.90;;;;;;5076202;28;20288;-71
2022/07/16 03:34:04;;;;;;;;;;;14.40;99.90;;;;;;5075974;28;19916;-72
2022/07/16 03:36:30;;;;;;;;;;;14.40;99.90;;;;;;5076420;28;19991;-72
2022/07/16 03:39:03;;;;;;;;;;;14.30;99.90;;;;;;5076075;28;19908;-72
2022/07/16 03:41:29;;;;;;;;;;;14.40;99.90;;;;;;5076372;28;19916;-72
2022/07/16 03:43:54;;;;;;;;;;;14.40;99.90;;;;;;5075838;28;20284;-72
2022/07/16 03:46:20;;;;;;;;;;;14.40;99.90;;;;;;5075969;28;19935;-71
2022/07/16 03:48:45;;;;;;;;;;;14.40;99.90;;;;;;5075921;28;20391;-72
2022/07/16 03:51:11;;;;;;;;;;;14.30;99.90;;;;;;5076613;28;19909;-72
2022/07/16 03:53:37;;;;;;;;;;;14.30;99.90;;;;;;5075823;28;19975;-71
2022/07/16 03:56:04;;;;;;;;;;;14.30;99.90;;;;;;5075693;28;19931;-71
2022/07/16 03:58:30;;;;;;;;;;;14.30;99.90;;;;;;5075700;28;19916;-72
2022/07/16 04:00:55;;;;;;;;;;;14.20;99.90;;;;;;5075653;28;19945;-72
2022/07/16 04:03:21;;;;;;;;;;;14.20;99.90;;;;;;5075564;28;20342;-72
2022/07/16 04:05:47;;;;;;;;;;;14.20;99.90;;;;;;5075505;28;19986;-71
2022/07/16 04:08:12;;;;;;;;;;;14.20;99.90;;;;;;5075811;28;19932;-71
2022/07/16 04:10:38;;;;;;;;;;;14.30;99.90;;;;;;5075439;28;19930;-72
2022/07/16 04:13:04;;;;;;;;;;;14.30;99.90;;;;;;5076014;28;19962;-71
2022/07/16 04:15:29;;;;;;;;;;;14.30;99.90;;;;;;5075333;28;19916;-72
2022/07/16 04:17:55;;;;;;;;;;;14.20;99.90;;;;;;5075589;28;19954;-72
2022/07/16 04:20:21;;;;;;;;;;;14.30;99.90;;;;;;5075289;28;20028;-71
2022/07/16 04:22:46;;;;;;;;;;;14.30;99.90;;;;;;5074241;28;20349;-71
2022/07/16 04:25:15;;;;;;;;;;;14.30;99.90;;;;;;5074996;28;19912;-71
2022/07/16 04:27:41;;;;;;;;;;;14.30;99.90;;;;;;5073876;28;19909;-71
2022/07/16 04:30:07;;;;;;;;;;;14.20;99.90;;;;;;5075062;28;19909;-71
2022/07/16 04:32:34;;;;;;;;;;;14.20;99.90;;;;;;5075325;28;19909;-71
2022/07/16 04:34:59;;;;;;;;;;;14.20;99.90;;;;;;5074805;28;19993;-71
2022/07/16 04:37:25;;;;;;;;;;;14.20;99.90;;;;;;5075476;28;19909;-71
2022/07/16 04:39:51;;;;;;;;;;;14.20;99.90;;;;;;5074878;28;20331;-71
2022/07/16 04:42:16;;;;;;;;;;;14.20;99.90;;;;;;5075125;28;19912;-71
2022/07/16 04:44:42;;;;;;;;;;;14.20;99.90;;;;;;5073403;28;19912;-71
2022/07/16 04:47:07;;;;;;;;;;;14.30;99.90;;;;;;5073497;28;19915;-71
2022/07/16 04:49:33;;;;;;;;;;;14.30;99.90;;;;;;5074666;28;19909;-71
2022/07/16 04:51:58;;;;;;;;;;;14.30;99.90;;;;;;5073400;28;19909;-71
2022/07/16 04:54:24;;;;;;;;;;;14.40;99.90;;;;;;5073266;28;20288;-71
2022/07/16 04:56:49;;;;;;;;;;;14.40;99.90;;;;;;5074543;28;19909;-71
2022/07/16 04:59:15;;;;;;;;;;;14.30;99.90;;;;;;5074461;28;20369;-71
2022/07/16 05:01:40;;;;;;;;;;;14.30;99.90;;;;;;5074019;28;19966;-71
2022/07/16 05:04:06;;;;;;;;;;;14.30;99.90;;;;;;5074208;28;19962;-71
2022/07/16 05:06:32;;;;;;;;;;;14.30;99.90;;;;;;5073111;28;20395;-71
2022/07/16 05:08:57;;;;;;;;;;;14.40;99.90;;;;;;5074343;28;20375;-71
2022/07/16 05:11:23;;;;;;;;;;;14.40;99.90;;;;;;5074267;28;19909;-71
2022/07/16 05:13:50;;;;;;;;;;;14.40;99.90;;;;;;5072910;28;19912;-71
2022/07/16 05:16:16;;;;;;;;;;;14.40;99.90;;;;;;5072963;28;19908;-71
2022/07/16 05:18:41;;;;;;;;;;;14.50;99.90;;;;;;5074184;28;19995;-71
2022/07/16 05:21:07;;;;;;;;;;;14.50;99.90;;;;;;5074151;28;19999;-71
2022/07/16 05:23:33;;;;;;;;;;;14.60;99.90;;;;;;5074066;28;19912;-71
2022/07/16 05:25:59;;;;;;;;;;;14.60;99.90;;;;;;5074022;28;20006;-71
2022/07/16 05:28:24;;;;;;;;;;;14.50;99.90;;;;;;5072818;28;19952;-71
2022/07/16 05:30:50;;;;;;;;;;;14.50;99.90;;;;;;5074556;28;20369;-71
2022/07/16 05:33:15;;;;;;;;;;;14.50;99.90;;;;;;5073866;28;20291;-71
2022/07/16 05:35:41;;;;;;;;;;;14.50;99.90;;;;;;5073758;28;19920;-71
2022/07/16 05:38:06;;;;;;;;;;;14.60;99.90;;;;;;5073855;28;20008;-71
2022/07/16 05:40:32;;;;;;;;;;;14.70;99.90;;;;;;5074148;28;19996;-71
2022/07/16 05:42:57;;;;;;;;;;;14.70;99.90;;;;;;5073806;28;19908;-71
2022/07/16 05:45:23;;;;;;;;;;;14.80;99.90;;;;;;5073646;28;19912;-72
2022/07/16 05:47:48;;;;;;;;;;;14.90;99.90;;;;;;5073760;28;19916;-71
2022/07/16 05:50:14;;;;;;;;;;;15.00;99.90;;;;;;5073740;28;19912;-71
2022/07/16 05:52:40;;;;;;;;;;;15.10;99.90;;;;;;5074007;28;19909;-71
2022/07/16 05:55:05;;;;;;;;;;;15.20;99.90;;;;;;5072360;28;19912;-70
2022/07/16 05:57:31;;;;;;;;;;;15.20;99.90;;;;;;5073947;28;19909;-71
2022/07/16 05:59:56;;;;;;;;;;;15.30;99.90;;;;;;5073914;28;20279;-71
2022/07/16 06:02:22;;;;;;;;;;;15.40;99.90;;;;;;5074149;28;20357;-71
2022/07/16 06:04:48;;;;;;;;;;;15.50;99.90;;;;;;5073450;28;20380;-71
2022/07/16 06:07:13;;;;;;;;;;;15.50;99.90;;;;;;5073847;28;19908;-71
2022/07/16 06:09:39;;;;;;;;;;;15.60;99.90;;;;;;5074040;28;19909;-70
2022/07/16 06:12:04;;;;;;;;;;;15.60;99.90;;;;;;5073798;28;19916;-71
2022/07/16 06:14:30;;;;;;;;;;;15.70;99.90;;;;;;5075092;28;19912;-71
2022/07/16 06:16:55;;;;;;;;;;;15.80;99.90;;;;;;5077610;28;19909;-71
2022/07/16 06:19:21;;;;;;;;;;;15.90;99.90;;;;;;5077465;28;19931;-71
2022/07/16 06:21:46;;;;;;;;;;;16.00;99.90;;;;;;5077452;28;19931;-70
2022/07/16 06:24:12;;;;;;;;;;;16.10;99.90;;;;;;5077291;28;20220;-71
2022/07/16 06:26:37;;;;;;;;;;;16.20;99.90;;;;;;5077675;28;19908;-71
2022/07/16 06:29:03;;;;;;;;;;;16.20;99.90;;;;;;5077890;28;19909;-71
2022/07/16 06:31:28;;;;;;;;;;;16.40;99.90;;;;;;5076040;28;19915;-70
2022/07/16 06:33:54;;;;;;;;;;;16.40;99.90;;;;;;5077056;28;20265;-71
2022/07/16 06:36:19;;;;;;;;;;;16.50;99.90;;;;;;5077220;28;19913;-71
2022/07/16 06:38:46;;;;;;;;;;;16.50;99.90;;;;;;5077113;28;20288;-71
2022/07/16 06:41:11;;;;;;;;;;;16.50;99.90;;;;;;5077665;28;19908;-71
2022/07/16 06:43:37;;;;;;;;;;;16.60;99.90;;;;;;5076981;28;19962;-70
2022/07/16 06:46:02;;;;;;;;;;;16.60;99.90;;;;;;5077259;28;19915;-71
2022/07/16 06:48:28;;;;;;;;;;;16.60;99.90;;;;;;5077001;28;20003;-71
2022/07/16 06:50:54;;;;;;;;;;;16.70;99.90;;;;;;5076914;28;19940;-71
2022/07/16 06:53:19;;;;;;;;;;;16.80;99.90;;;;;;5076880;28;19967;-70
2022/07/16 06:55:45;;;;;;;;;;;16.90;99.90;;;;;;5076740;28;20293;-70
2022/07/16 06:58:10;;;;;;;;;;;17.00;99.90;;;;;;5077097;28;20376;-71
2022/07/16 07:00:36;;;;;;;;;;;17.20;99.90;;;;;;5076690;28;19915;-70
2022/07/16 07:03:01;;;;;;;;;;;17.30;99.90;;;;;;5077243;28;20462;-71
2022/07/16 07:05:27;;;;;;;;;;;17.40;99.90;;;;;;5076774;28;19913;-71
2022/07/16 07:07:52;;;;;;;;;;;17.60;99.90;;;;;;5076654;28;19912;-71
2022/07/16 07:10:19;;;;;;;;;;;17.70;99.90;;;;;;5077002;28;19956;-70
2022/07/16 07:12:45;;;;;;;;;;;17.80;99.90;;;;;;5076586;28;20296;-71
2022/07/16 07:15:11;;;;;;;;;;;18.00;99.90;;;;;;5075201;28;19999;-71
2022/07/16 07:17:36;;;;;;;;;;;18.10;99.90;;;;;;5076458;28;19951;-71
2022/07/16 07:20:03;;;;;;;;;;;18.30;99.90;;;;;;5076751;28;19947;-71
2022/07/16 07:22:29;;;;;;;;;;;18.40;99.90;;;;;;5076703;28;20364;-71
2022/07/16 07:24:54;;;;;;;;;;;18.50;99.90;;;;;;5076103;28;20010;-70
2022/07/16 07:27:20;;;;;;;;;;;18.70;99.90;;;;;;5075121;28;19908;-71
2022/07/16 07:29:46;;;;;;;;;;;18.80;99.90;;;;;;5076909;28;20383;-70
2022/07/16 07:32:11;;;;;;;;;;;18.90;99.90;;;;;;5074976;28;19944;-71
2022/07/16 07:34:37;;;;;;;;;;;19.10;99.90;;;;;;5076592;28;19917;-71
2022/07/16 07:37:02;;;;;;;;;;;19.20;99.90;;;;;;5076460;28;19922;-70
2022/07/16 07:39:28;;;;;;;;;;;19.30;99.90;;;;;;5076140;28;19970;-70
2022/07/16 07:41:53;;;;;;;;;;;19.50;99.90;;;;;;5076308;28;19908;-71
2022/07/16 07:44:19;;;;;;;;;;;19.60;99.90;;;;;;5075904;28;19919;-70
2022/07/16 07:46:44;;;;;;;;;;;19.70;99.90;;;;;;5074725;28;20398;-70
2022/07/16 07:49:11;;;;;;;;;;;19.90;99.90;;;;;;5075937;28;19999;-71
2022/07/16 07:51:36;;;;;;;;;;;20.00;99.90;;;;;;5075910;28;20351;-71
2022/07/16 07:54:02;;;;;;;;;;;20.20;99.90;;;;;;5075826;28;19908;-71
2022/07/16 07:56:27;;;;;;;;;;;20.30;98.50;;;;;;5075809;28;20426;-75
2022/07/16 07:58:53;;;;;;;;;;;20.50;97.60;;;;;;5075782;28;19909;-74
2022/07/16 08:01:19;;;;;;;;;;;20.70;96.60;;;;;;5075711;28;19913;-74
2022/07/16 08:03:44;;;;;;;;;;;20.80;97.20;;;;;;5075762;28;19962;-75
2022/07/16 08:06:10;;;;;;;;;;;20.90;95.50;;;;;;5075570;28;19908;-74
2022/07/16 08:08:35;;;;;;;;;;;21.00;94.80;;;;;;5075570;28;19915;-73
2022/07/16 08:11:01;;;;;;;;;;;21.20;94.40;;;;;;5075531;28;19909;-75
2022/07/16 08:13:26;;;;;;;;;;;21.30;93.70;;;;;;5075866;28;19923;-75
2022/07/16 08:15:52;;;;;;;;;;;21.40;91.60;;;;;;5075404;28;19915;-72
2022/07/16 08:18:17;;;;;;;;;;;21.50;92.00;;;;;;5075350;28;19915;-75
2022/07/16 08:20:43;;;;;;;;;;;21.60;91.60;;;;;;5075588;28;19915;-75
2022/07/16 08:23:09;;;;;;;;;;;21.80;91.40;;;;;;5075161;28;19949;-74
2022/07/16 08:25:46;;;;;;;;;;;21.90;88.20;;;;;;5075522;28;20385;-74
2022/07/16 08:28:12;;;;;;;;;;;22.00;88.40;;;;;;5075796;28;19915;-72
2022/07/16 08:30:38;;;;;;;;;;;22.10;88.10;;;;;;5075134;28;19916;-73
2022/07/16 08:33:04;;;;;;;;;;;22.20;88.90;;;;;;5075302;28;19909;-74
2022/07/16 08:35:29;;;;;;;;;;;22.30;85.70;;;;;;5074857;28;19920;-75
2022/07/16 08:37:55;;;;;;;;;;;22.40;85.70;;;;;;5074030;28;20006;-75
2022/07/16 08:40:21;;;;;;;;;;;22.50;84.80;;;;;;5073641;28;19908;-73
2022/07/16 08:42:47;;;;;;;;;;;22.60;84.40;;;;;;5075123;28;20369;-73
2022/07/16 08:45:14;;;;;;;;;;;22.70;84.00;;;;;;5074684;28;20368;-71
2022/07/16 08:47:40;;;;;;;;;;;22.70;83.50;;;;;;5074810;28;19909;-73
2022/07/16 08:50:08;;;;;;;;;;;22.80;80.90;;;;;;5074687;28;19909;-74
2022/07/16 08:52:36;;;;;;;;;;;22.80;80.30;;;;;;5074663;28;19908;-75
2022/07/16 08:55:02;;;;;;;;;;;22.90;82.60;;;;;;5074546;28;19908;-74
2022/07/16 08:57:28;;;;;;;;;;;22.90;79.60;;;;;;5074882;28;19975;-75
2022/07/16 08:59:54;;;;;;;;;;;23.00;80.00;;;;;;5074605;28;20430;-75
2022/07/16 09:02:19;;;;;;;;;;;23.10;78.80;;;;;;5074839;28;19908;-73
2022/07/16 09:04:46;;;;;;;;;;;23.20;77.90;;;;;;5073126;28;19912;-75
2022/07/16 09:07:18;;;;;;;;;;;23.20;78.90;;;;;;5071496;28;20353;-73
2022/07/16 09:09:46;;;;;;;;;;;23.30;78.90;;;;;;5072988;28;19908;-75
2022/07/16 09:12:30;;;;;;;;;;;23.30;76.40;;;;;;5072935;28;19916;-73
2022/07/16 09:14:55;;;;;;;;;;;23.40;75.10;;;;;;5074244;28;19935;-73
2022/07/16 09:17:21;;;;;;;;;;;23.50;77.60;;;;;;5074511;28;19909;-74
2022/07/16 09:19:46;;;;;;;;;;;23.60;76.10;;;;;;5074133;28;19962;-75
2022/07/16 09:22:14;;;;;;;;;;;23.60;74.60;;;;;;5072852;28;19909;-75
2022/07/16 09:24:43;;;;;;;;;;;23.60;73.30;;;;;;5074026;28;19958;-74
2022/07/16 09:27:11;;;;;;;;;;;23.60;74.10;;;;;;5072594;28;19930;-74
2022/07/16 09:29:45;;;;;;;;;;;23.70;74.00;;;;;;5074061;28;20326;-73
2022/07/16 09:32:11;;;;;;;;;;;23.70;73.70;;;;;;5073875;28;19987;-73
2022/07/16 09:34:36;;;;;;;;;;;23.80;75.90;;;;;;5072021;28;19916;-74
2022/07/16 09:37:04;;;;;;;;;;;23.90;73.20;;;;;;5073762;28;19912;-73
2022/07/16 09:39:31;;;;;;;;;;;24.00;72.80;;;;;;5073751;28;19908;-72
2022/07/16 09:41:56;;;;;;;;;;;24.00;71.40;;;;;;5060272;28;19955;-75
2022/07/16 09:44:23;;;;;;;;;;;24.10;72.60;;;;;;5053263;28;20396;-74
2022/07/16 09:46:59;;;;;;;;;;;24.10;70.50;;;;;;5053555;28;19909;-73
2022/07/16 09:49:26;;;;;;;;;;;24.10;71.70;;;;;;5052951;28;19920;-74
2022/07/16 09:51:52;;;;;;;;;;;24.20;71.30;;;;;;5054062;28;19974;-74
2022/07/16 09:54:28;;;;;;;;;;;24.30;71.60;;;;;;5054214;28;20353;-75
2022/07/16 09:57:03;;;;;;;;;;;24.50;70.10;;;;;;5053576;28;19916;-74
2022/07/16 09:59:29;;;;;;;;;;;24.40;70.70;;;;;;5053957;28;19909;-73
2022/07/16 10:01:55;;;;;;;;;;;24.40;71.70;;;;;;5053652;28;20364;-74
2022/07/16 10:04:23;;;;;;;;;;;24.50;69.80;;;;;;5053486;28;19952;-72
2022/07/16 10:06:49;;;;;;;;;;;24.50;72.00;;;;;;5054172;28;19909;-72
2022/07/16 10:09:14;;;;;;;;;;;24.50;71.70;;;;;;5053611;28;19920;-76
2022/07/16 10:11:42;;;;;;;;;;;24.60;70.90;;;;;;5053385;28;19909;-73
2022/07/16 10:14:08;;;;;;;;;;;24.70;72.30;;;;;;5053729;28;20422;-73
2022/07/16 10:16:40;;;;;;;;;;;24.80;71.50;;;;;;5053466;28;20003;-72
2022/07/16 10:19:06;;;;;;;;;;;24.70;68.00;;;;;;5053637;28;19909;-72
2022/07/16 10:21:32;;;;;;;;;;;24.60;70.90;;;;;;5053437;28;19909;-72
2022/07/16 10:24:08;;;;;;;;;;;24.70;67.80;;;;;;5053254;28;19913;-73
2022/07/16 10:26:34;;;;;;;;;;;24.70;69.10;;;;;;5053182;28;19904;-73
2022/07/16 10:29:00;;;;;;;;;;;24.80;69.70;;;;;;5053371;28;19908;-73
2022/07/16 10:31:35;;;;;;;;;;;24.80;70.40;;;;;;5053365;28;19915;-72
2022/07/16 10:34:26;;;;;;;;;;;24.90;69.50;;;;;;5053151;28;19963;-72
2022/07/16 10:36:53;;;;;;;;;;;25.00;68.50;;;;;;5052634;28;19909;-73
2022/07/16 10:39:19;;;;;;;;;;;25.10;70.90;;;;;;5053540;28;19916;-72
2022/07/16 10:41:48;;;;;;;;;;;25.10;69.10;;;;;;5052946;28;19913;-73
2022/07/16 10:44:14;;;;;;;;;;;25.10;69.50;;;;;;5053118;28;19913;-73
2022/07/16 10:47:01;;;;;;;;;;;25.20;69.70;;;;;;5053217;28;20399;-73
2022/07/16 10:49:28;;;;;;;;;;;25.10;70.40;;;;;;5053174;28;19932;-73
2022/07/16 10:51:54;;;;;;;;;;;25.20;69.40;;;;;;5053170;28;20369;-72
2022/07/16 10:54:19;;;;;;;;;;;25.20;65.90;;;;;;5053082;28;19931;-76
2022/07/16 10:56:46;;;;;;;;;;;25.10;70.40;;;;;;5051933;28;20373;-72
2022/07/16 10:59:14;;;;;;;;;;;25.10;67.90;;;;;;5053120;28;19908;-73
2022/07/16 11:01:40;;;;;;;;;;;25.00;68.50;;;;;;5055996;28;19913;-72
2022/07/16 11:04:07;;;;;;;;;;;25.00;72.00;;;;;;5056904;28;19924;-72
2022/07/16 11:06:33;;;;;;;;;;;25.00;68.90;;;;;;5057024;28;19912;-73
2022/07/16 11:08:59;;;;;;;;;;;25.10;68.90;;;;;;5056921;28;20276;-73
2022/07/16 11:11:35;;;;;;;;;;;25.20;69.00;;;;;;5056651;28;20292;-72
2022/07/16 11:14:01;;;;;;;;;;;25.20;69.40;;;;;;5056714;28;19909;-72
2022/07/16 11:16:27;;;;;;;;;;;25.30;68.70;;;;;;5057100;28;19913;-72
2022/07/16 11:18:52;;;;;;;;;;;25.40;70.90;;;;;;5055508;28;20007;-72
2022/07/16 11:21:18;;;;;;;;;;;25.40;68.10;;;;;;5056417;28;19955;-72
2022/07/16 11:23:50;;;;;;;;;;;25.40;68.60;;;;;;5056529;28;19912;-72
2022/07/16 11:26:16;;;;;;;;;;;25.40;66.40;;;;;;5056139;28;19909;-72
2022/07/16 11:28:54;;;;;;;;;;;25.40;67.40;;;;;;5056266;28;19915;-71
2022/07/16 11:31:23;;;;;;;;;;;25.40;66.50;;;;;;5056702;28;19913;-70
2022/07/16 11:33:49;;;;;;;;;;;25.40;68.30;;;;;;5056080;28;20388;-70
2022/07/16 11:36:15;;;;;;;;;;;25.40;68.20;;;;;;5056736;28;20004;-70
2022/07/16 11:38:40;;;;;;;;;;;25.40;68.40;;;;;;5054819;28;20293;-71
2022/07/16 11:41:06;;;;;;;;;;;25.50;67.90;;;;;;5055766;28;19968;-70
2022/07/16 11:43:31;;;;;;;;;;;25.60;70.40;;;;;;5055921;28;19909;-72
2022/07/16 11:45:57;;;;;;;;;;;25.70;65.50;;;;;;5055863;28;19909;-71
2022/07/16 11:48:22;;;;;;;;;;;25.70;66.60;;;;;;5055877;28;19909;-71
2022/07/16 11:50:48;;;;;;;;;;;25.80;65.90;;;;;;5055857;28;19909;-71
2022/07/16 11:53:26;;;;;;;;;;;25.80;67.60;;;;;;5055792;28;19909;-71
2022/07/16 11:55:51;;;;;;;;;;;25.80;67.30;;;;;;5055512;28;20376;-70
2022/07/16 11:58:18;;;;;;;;;;;25.90;67.60;;;;;;5055710;28;19908;-70
2022/07/16 12:00:44;;;;;;;;;;;26.00;64.80;;;;;;5055693;28;20021;-71
2022/07/16 12:03:11;;;;;;;;;;;26.00;64.70;;;;;;5056090;28;20324;-69
2022/07/16 12:05:36;;;;;;;;;;;26.00;64.60;;;;;;5055450;28;19919;-70
2022/07/16 12:08:03;;;;;;;;;;;25.90;66.00;;;;;;5055556;28;20336;-70
2022/07/16 12:10:28;;;;;;;;;;;25.90;65.30;;;;;;5056064;28;20004;-70
2022/07/16 12:13:04;;;;;;;;;;;25.90;64.20;;;;;;5053945;28;19963;-70
2022/07/16 12:15:29;;;;;;;;;;;26.00;65.40;;;;;;5055318;28;19908;-72
2022/07/16 12:18:09;;;;;;;;;;;26.00;63.80;;;;;;5055334;28;19913;-70
2022/07/16 12:20:35;;;;;;;;;;;26.00;64.00;;;;;;5055618;28;19913;-71
2022/07/16 12:23:01;;;;;;;;;;;26.00;64.30;;;;;;5055253;28;19908;-70
2022/07/16 12:25:36;;;;;;;;;;;25.90;63.40;;;;;;5053785;28;19919;-71
2022/07/16 12:28:03;;;;;;;;;;;26.00;68.90;;;;;;5054971;28;19908;-71
2022/07/16 12:30:48;;;;;;;;;;;26.20;66.10;;;;;;5055461;28;19916;-71
2022/07/16 12:33:27;;;;;;;;;;;26.40;66.30;;;;;;5055057;28;19909;-71
2022/07/16 12:36:05;;;;;;;;;;;26.50;65.70;;;;;;5054902;28;19960;-70
2022/07/16 12:38:54;;;;;;;;;;;26.60;63.50;;;;;;5053679;28;19915;-71
2022/07/16 12:41:21;;;;;;;;;;;26.70;64.60;;;;;;5054872;28;19996;-71
2022/07/16 12:43:48;;;;;;;;;;;26.70;64.60;;;;;;5054689;28;19919;-70
2022/07/16 12:46:15;;;;;;;;;;;26.70;64.40;;;;;;5054785;28;19916;-70
2022/07/16 12:48:45;;;;;;;;;;;26.80;65.30;;;;;;5054771;28;19915;-71
2022/07/16 12:51:12;;;;;;;;;;;26.80;61.90;;;;;;5054719;28;19913;-70
2022/07/16 12:53:38;;;;;;;;;;;26.80;62.90;;;;;;5053404;28;19974;-69
2022/07/16 12:58:47;;;;;;;;;;;26.60;64.70;;;;;;5054913;28;19939;-69
2022/07/16 13:01:14;;;;;;;;;;;26.80;63.70;;;;;;5054494;28;19909;-70
2022/07/16 13:03:40;;;;;;;;;;;26.80;62.30;;;;;;5054763;28;19913;-69
2022/07/16 13:06:06;;;;;;;;;;;26.70;62.10;;;;;;5054364;28;20382;-70
2022/07/16 13:08:32;;;;;;;;;;;26.70;61.80;;;;;;5054706;28;19916;-70
2022/07/16 13:10:57;;;;;;;;;;;26.70;65.20;;;;;;5054676;28;19909;-71
2022/07/16 13:13:23;;;;;;;;;;;26.70;63.60;;;;;;5052842;28;19908;-70
2022/07/16 13:15:48;;;;;;;;;;;26.90;63.90;;;;;;5054231;28;19931;-71
2022/07/16 13:18:14;;;;;;;;;;;27.00;61.10;;;;;;5054261;28;19913;-70
2022/07/16 13:20:39;;;;;;;;;;;27.00;61.70;;;;;;5054193;28;20385;-70
2022/07/16 13:23:05;;;;;;;;;;;27.00;62.10;;;;;;5054352;28;19952;-69
2022/07/16 13:25:30;;;;;;;;;;;27.00;61.30;;;;;;5053980;28;19917;-69
2022/07/16 13:27:56;;;;;;;;;;;26.90;61.90;;;;;;5053797;28;19909;-70
2022/07/16 13:30:21;;;;;;;;;;;26.90;62.20;;;;;;5054610;28;20357;-71
2022/07/16 13:32:47;;;;;;;;;;;26.80;60.30;;;;;;5053985;28;20375;-71
2022/07/16 13:35:13;;;;;;;;;;;26.80;62.10;;;;;;5053942;28;20428;-71
2022/07/16 13:37:38;;;;;;;;;;;26.80;61.30;;;;;;5054225;28;20312;-72
2022/07/16 13:40:04;;;;;;;;;;;26.90;62.40;;;;;;5053896;28;19916;-70
2022/07/16 13:42:29;;;;;;;;;;;27.00;59.90;;;;;;5053528;28;19916;-71
2022/07/16 13:44:55;;;;;;;;;;;27.00;62.50;;;;;;5053821;28;19946;-71
2022/07/16 13:47:21;;;;;;;;;;;27.10;62.40;;;;;;5053775;28;19908;-73
2022/07/16 13:49:46;;;;;;;;;;;27.10;61.80;;;;;;5054028;28;19912;-72
2022/07/16 13:52:12;;;;;;;;;;;27.10;61.50;;;;;;5054279;28;19916;-71
2022/07/16 13:54:37;;;;;;;;;;;27.20;62.30;;;;;;5053644;28;20357;-72
2022/07/16 13:59:47;;;;;;;;;;;27.10;61.10;;;;;;5053695;28;19916;-73
2022/07/16 14:02:13;;;;;;;;;;;27.20;60.20;;;;;;5053678;28;19909;-71
2022/07/16 14:04:38;;;;;;;;;;;27.20;61.50;;;;;;5053482;28;20254;-68
2022/07/16 14:07:04;;;;;;;;;;;27.00;59.30;;;;;;5053901;28;19931;-72
2022/07/16 14:09:30;;;;;;;;;;;26.90;59.30;;;;;;5053591;28;19915;-71
2022/07/16 14:11:55;;;;;;;;;;;26.80;61.00;;;;;;5053496;28;20004;-71
2022/07/16 14:14:21;;;;;;;;;;;26.90;61.60;;;;;;5053724;28;19913;-71
2022/07/16 14:16:46;;;;;;;;;;;27.00;59.80;;;;;;5053763;28;20311;-70
2022/07/16 14:19:13;;;;;;;;;;;27.00;60.20;;;;;;5053470;28;19909;-70